Time;durP1;ratioP1;P1;durP2;ratioP2;P2;SDS_P1;SDS_P2;PMS_P1;PMS_P2;Temp;Humidity;BMP_temperature;BMP_pressure;BME280_temperature;BME280_humidity;BME280_pressure;Samples;Min_cycle;Max_cycle;Signal;HPM_P1;HPM_P2
2023/04/17 00:00:52;;;;;;;15.27;8.70;;;;;;;12.05;100.00;94462.22;5001390;28;20261;-74
2023/04/17 00:03:17;;;;;;;17.27;9.67;;;;;;;12.08;99.35;94467.00;5016312;28;20222;-76
2023/04/17 00:05:45;;;;;;;13.67;8.80;;;;;;;11.95;100.00;94453.25;5002943;28;20248;-75
2023/04/17 00:08:11;;;;;;;16.07;9.07;;;;;;;12.07;99.42;94454.13;4995318;28;20754;-74
2023/04/17 00:10:36;;;;;;;15.30;9.13;;;;;;;12.05;99.65;94456.16;5005250;28;20968;-75
2023/04/17 00:13:02;;;;;;;15.20;9.17;;;;;;;12.05;99.86;94462.22;5000199;28;20233;-75
2023/04/17 00:15:27;;;;;;;15.53;8.53;;;;;;;12.08;99.47;94456.53;4999091;28;20333;-75
2023/04/17 00:17:53;;;;;;;15.40;8.80;;;;;;;12.12;99.41;94455.09;5011766;28;20237;-75
2023/04/17 00:20:18;;;;;;;16.70;9.03;;;;;;;12.27;98.63;94453.91;4981262;28;20245;-74
2023/04/17 00:22:44;;;;;;;14.10;8.20;;;;;;;12.11;97.70;94456.09;4997614;28;20316;-75
2023/04/17 00:25:13;;;;;;;15.27;8.27;;;;;;;11.91;98.98;94452.09;4996230;28;20260;-76
2023/04/17 00:27:39;;;;;;;14.60;8.83;;;;;;;11.96;98.85;94453.06;5023433;28;20750;-75
2023/04/17 00:30:06;;;;;;;15.23;9.20;;;;;;;12.04;98.38;94450.13;5007432;28;20252;-74
2023/04/17 00:32:31;;;;;;;15.13;9.00;;;;;;;11.97;98.70;94454.63;5003412;28;20825;-74
2023/04/17 00:34:57;;;;;;;18.17;9.33;;;;;;;11.96;98.77;94454.88;5013509;28;20233;-74
2023/04/17 00:37:22;;;;;;;19.00;9.27;;;;;;;11.77;100.00;94454.06;5022551;28;20731;-74
2023/04/17 00:39:48;;;;;;;15.63;9.27;;;;;;;11.81;100.00;94449.19;5002860;28;20841;-75
2023/04/17 00:42:13;;;;;;;17.33;9.90;;;;;;;11.91;99.89;94455.53;4987550;28;20839;-76
2023/04/17 00:44:39;;;;;;;15.23;9.10;;;;;;;11.85;99.86;94455.59;5002694;28;20271;-76
2023/04/17 00:47:04;;;;;;;17.73;9.37;;;;;;;11.78;100.00;94445.16;5003425;28;20634;-75
2023/04/17 00:49:30;;;;;;;17.50;10.03;;;;;;;11.80;100.00;94444.94;5013041;28;20241;-75
2023/04/17 00:51:55;;;;;;;18.87;10.00;;;;;;;11.73;100.00;94444.22;4998730;28;20264;-73
2023/04/17 00:54:21;;;;;;;17.53;9.10;;;;;;;11.73;100.00;94446.84;4998600;28;20236;-75
2023/04/17 00:56:47;;;;;;;18.00;8.67;;;;;;;11.71;100.00;94441.81;5027748;28;20242;-76
2023/04/17 00:59:15;;;;;;;16.17;8.60;;;;;;;11.69;100.00;94436.00;4983428;28;20257;-75
2023/04/17 01:01:41;;;;;;;14.10;8.23;;;;;;;11.58;100.00;94439.31;5000294;28;20480;-75
2023/04/17 01:04:08;;;;;;;14.77;8.07;;;;;;;11.59;100.00;94435.66;4999908;28;20723;-75
2023/04/17 01:06:34;;;;;;;12.57;8.00;;;;;;;11.54;100.00;94438.13;5011911;28;21248;-76
2023/04/17 01:08:59;;;;;;;15.60;8.07;;;;;;;11.52;100.00;94435.75;5012923;28;20238;-75
2023/04/17 01:11:25;;;;;;;17.20;8.70;;;;;;;11.61;100.00;94432.84;5006665;28;20232;-75
2023/04/17 01:13:50;;;;;;;17.17;8.20;;;;;;;11.53;100.00;94436.53;5012067;28;20240;-74
2023/04/17 01:16:16;;;;;;;15.40;8.67;;;;;;;11.55;100.00;94434.50;4996537;28;20226;-74
2023/04/17 01:18:42;;;;;;;20.53;8.93;;;;;;;11.62;100.00;94431.81;4997382;28;20241;-74
2023/04/17 01:21:07;;;;;;;15.43;8.83;;;;;;;11.50;100.00;94434.34;4997964;28;20233;-74
2023/04/17 01:23:44;;;;;;;15.47;9.23;;;;;;;11.44;100.00;94427.34;5023814;28;20249;-74
2023/04/17 01:26:11;;;;;;;20.17;9.03;;;;;;;11.56;100.00;94430.84;5002122;28;20231;-75
2023/04/17 01:28:37;;;;;;;17.17;9.60;;;;;;;11.39;100.00;94430.63;5004304;28;20303;-75
2023/04/17 01:31:03;;;;;;;17.70;9.10;;;;;;;11.41;100.00;94425.19;5028848;28;20230;-75
2023/04/17 01:33:28;;;;;;;17.93;9.00;;;;;;;11.48;100.00;94439.81;5000323;28;20231;-76
2023/04/17 01:35:53;;;;;;;17.70;8.97;;;;;;;11.41;100.00;94431.22;5010912;28;20237;-75
2023/04/17 01:38:19;;;;;;;14.13;8.40;;;;;;;11.42;100.00;94432.00;5022123;28;20234;-74
2023/04/17 01:40:44;;;;;;;15.03;8.53;;;;;;;11.40;100.00;94434.84;5011106;28;20699;-74
2023/04/17 01:43:10;;;;;;;16.73;8.40;;;;;;;11.44;100.00;94428.16;4984518;28;20244;-74
2023/04/17 01:45:36;;;;;;;13.50;7.70;;;;;;;11.67;100.00;94422.28;4996623;28;20260;-75
2023/04/17 01:48:01;;;;;;;13.00;7.70;;;;;;;11.60;100.00;94423.38;5008355;28;20976;-75
2023/04/17 01:50:26;;;;;;;12.53;7.67;;;;;;;11.70;100.00;94418.47;5031402;28;20237;-74
2023/04/17 01:52:52;;;;;;;14.00;7.00;;;;;;;11.58;99.92;94414.94;5000247;28;20287;-75
2023/04/17 01:55:17;;;;;;;13.93;7.07;;;;;;;11.62;99.68;94424.75;5002097;28;20672;-75
2023/04/17 01:57:43;;;;;;;12.80;6.90;;;;;;;11.47;99.38;94422.47;4986623;28;20316;-75
2023/04/17 02:00:09;;;;;;;11.17;6.23;;;;;;;11.57;98.62;94421.97;5009051;28;20233;-75
2023/04/17 02:02:35;;;;;;;11.57;5.97;;;;;;;11.59;98.22;94417.31;5006172;28;20230;-76
2023/04/17 02:05:00;;;;;;;11.23;6.50;;;;;;;11.62;98.55;94409.03;4998301;28;20261;-75
2023/04/17 02:07:26;;;;;;;11.23;6.40;;;;;;;11.69;98.78;94415.03;5002422;28;20322;-75
2023/04/17 02:09:51;;;;;;;13.50;7.37;;;;;;;11.61;99.62;94409.25;5008579;28;20239;-75
2023/04/17 02:12:18;;;;;;;17.87;9.47;;;;;;;11.43;100.00;94408.22;5016353;28;20902;-74
2023/04/17 02:14:43;;;;;;;19.63;11.03;;;;;;;11.30;100.00;94410.94;4999458;28;20256;-75
2023/04/17 02:17:09;;;;;;;16.70;9.77;;;;;;;11.25;100.00;94404.75;5001071;28;20630;-75
2023/04/17 02:19:34;;;;;;;18.83;10.00;;;;;;;11.15;100.00;94409.69;5001171;28;20226;-75
2023/04/17 02:21:59;;;;;;;17.50;9.60;;;;;;;11.17;100.00;94398.00;5006398;28;20241;-74
2023/04/17 02:24:25;;;;;;;17.43;9.30;;;;;;;11.08;100.00;94398.47;4991692;28;20225;-75
2023/04/17 02:26:50;;;;;;;15.30;9.27;;;;;;;10.94;100.00;94410.09;5013283;28;20291;-74
2023/04/17 02:29:16;;;;;;;19.63;9.57;;;;;;;11.03;100.00;94409.59;5030496;28;20236;-74
2023/04/17 02:31:41;;;;;;;15.10;9.40;;;;;;;10.98;100.00;94403.41;5027727;28;20243;-75
2023/04/17 02:34:07;;;;;;;18.50;9.60;;;;;;;11.02;100.00;94396.72;5006053;28;20638;-75
2023/04/17 02:36:32;;;;;;;14.60;9.23;;;;;;;11.04;100.00;94403.34;4992888;28;20230;-74
2023/04/17 02:38:58;;;;;;;18.87;10.50;;;;;;;10.99;100.00;94403.19;4989987;28;20270;-75
2023/04/17 02:41:23;;;;;;;17.67;9.40;;;;;;;11.18;100.00;94406.63;5004214;28;20249;-75
2023/04/17 02:43:49;;;;;;;15.27;9.87;;;;;;;11.21;100.00;94406.22;5029218;28;20248;-75
2023/04/17 02:46:14;;;;;;;18.47;10.13;;;;;;;11.20;100.00;94415.88;5004808;28;20730;-75
2023/04/17 02:48:40;;;;;;;19.00;9.70;;;;;;;11.08;100.00;94412.34;5009386;28;20229;-75
2023/04/17 02:51:05;;;;;;;17.57;10.43;;;;;;;10.89;100.00;94413.31;5000556;28;20286;-75
2023/04/17 02:53:31;;;;;;;18.30;10.73;;;;;;;10.88;100.00;94411.75;5001464;28;20241;-75
2023/04/17 02:55:56;;;;;;;17.73;10.57;;;;;;;10.85;100.00;94406.91;5031264;28;20233;-74
2023/04/17 02:58:22;;;;;;;18.17;10.57;;;;;;;10.88;100.00;94413.53;4993174;28;20232;-74
2023/04/17 03:00:47;;;;;;;18.70;10.30;;;;;;;10.91;100.00;94416.56;5006121;28;20772;-75
2023/04/17 03:03:13;;;;;;;17.33;10.27;;;;;;;11.05;100.00;94417.25;5008422;28;20303;-75
2023/04/17 03:05:38;;;;;;;19.57;9.60;;;;;;;11.06;100.00;94416.19;4994251;28;20238;-74
2023/04/17 03:08:04;;;;;;;16.20;8.67;;;;;;;10.90;100.00;94412.31;5001823;28;20241;-75
2023/04/17 03:10:29;;;;;;;14.47;8.30;;;;;;;11.08;100.00;94412.34;5025627;28;20226;-74
2023/04/17 03:12:55;;;;;;;13.73;8.00;;;;;;;11.00;100.00;94417.06;5022731;28;20242;-76
2023/04/17 03:15:20;;;;;;;13.53;7.30;;;;;;;10.79;100.00;94416.41;5007793;28;20241;-75
2023/04/17 03:17:46;;;;;;;13.57;7.37;;;;;;;10.72;100.00;94413.03;4984106;28;20760;-74
2023/04/17 03:20:11;;;;;;;12.97;7.00;;;;;;;10.69;100.00;94412.69;5013740;28;20702;-74
2023/04/17 03:22:37;;;;;;;12.30;7.13;;;;;;;10.66;100.00;94418.34;4997124;28;20229;-75
2023/04/17 03:25:03;;;;;;;12.60;6.50;;;;;;;10.59;100.00;94415.78;5002216;28;20257;-75
2023/04/17 03:27:29;;;;;;;11.60;6.80;;;;;;;10.72;100.00;94423.50;5002084;28;20230;-75
2023/04/17 03:29:55;;;;;;;12.53;6.53;;;;;;;10.68;100.00;94426.78;4992013;28;20308;-75
2023/04/17 03:32:20;;;;;;;12.50;6.20;;;;;;;10.74;100.00;94411.03;4991785;28;20281;-75
2023/04/17 03:34:46;;;;;;;12.50;6.30;;;;;;;10.82;100.00;94418.63;5005716;28;20644;-75
2023/04/17 03:37:11;;;;;;;14.10;6.00;;;;;;;10.78;100.00;94421.88;5000743;28;20253;-74
2023/04/17 03:39:37;;;;;;;9.30;5.63;;;;;;;10.77;100.00;94415.84;5012458;28;20226;-75
2023/04/17 03:42:02;;;;;;;15.93;5.90;;;;;;;10.87;100.00;94425.06;5006787;28;20283;-75
2023/04/17 03:44:28;;;;;;;14.00;5.73;;;;;;;10.76;100.00;94414.25;5014327;28;20233;-75
2023/04/17 03:46:53;;;;;;;15.10;6.10;;;;;;;10.91;100.00;94419.16;5004926;28;20230;-74
2023/04/17 03:49:19;;;;;;;14.67;6.47;;;;;;;10.84;100.00;94426.28;5004765;28;20607;-75
2023/04/17 03:51:44;;;;;;;13.97;6.07;;;;;;;10.72;100.00;94422.75;5000867;28;20241;-74
2023/04/17 03:54:10;;;;;;;12.13;5.70;;;;;;;10.90;100.00;94424.59;5003815;28;20706;-74
2023/04/17 03:56:35;;;;;;;13.90;5.87;;;;;;;10.75;100.00;94423.09;5004939;28;20242;-75
2023/04/17 03:59:03;;;;;;;15.63;6.27;;;;;;;10.92;100.00;94427.81;4997660;28;20736;-75
2023/04/17 04:01:28;;;;;;;13.90;6.10;;;;;;;10.90;100.00;94425.41;5011139;28;20288;-74
2023/04/17 04:03:54;;;;;;;16.47;6.60;;;;;;;10.81;100.00;94424.88;5011191;28;20231;-75
2023/04/17 04:06:21;;;;;;;13.37;6.00;;;;;;;10.80;100.00;94431.13;5009493;28;20234;-75
2023/04/17 04:08:50;;;;;;;12.67;6.40;;;;;;;10.71;100.00;94426.34;4981425;28;20235;-75
2023/04/17 04:11:15;;;;;;;14.20;6.00;;;;;;;10.81;100.00;94421.47;4999644;28;20242;-74
2023/04/17 04:13:41;;;;;;;10.87;5.97;;;;;;;10.64;100.00;94423.78;5014535;28;20238;-74
2023/04/17 04:16:07;;;;;;;12.97;5.87;;;;;;;10.53;100.00;94424.44;4994035;28;20243;-74
2023/04/17 04:18:33;;;;;;;16.20;5.97;;;;;;;10.54;100.00;94425.25;4992609;28;20230;-75
2023/04/17 04:20:58;;;;;;;11.83;5.60;;;;;;;10.33;100.00;94429.00;5010081;28;20368;-76
2023/04/17 04:23:24;;;;;;;11.10;5.93;;;;;;;10.56;100.00;94425.84;5010297;28;20230;-75
2023/04/17 04:25:50;;;;;;;13.13;5.60;;;;;;;10.61;100.00;94429.44;4989769;28;20239;-75
2023/04/17 04:28:16;;;;;;;10.27;5.37;;;;;;;10.47;100.00;94434.97;5007675;28;20791;-75
2023/04/17 04:30:49;;;;;;;10.10;5.33;;;;;;;10.64;100.00;94431.66;5018114;28;20250;-74
2023/04/17 04:33:16;;;;;;;8.87;5.90;;;;;;;10.51;100.00;94433.53;5002774;28;20738;-75
2023/04/17 04:35:46;;;;;;;13.33;5.90;;;;;;;10.55;100.00;94434.72;4992338;28;20345;-74
2023/04/17 04:38:12;;;;;;;12.30;6.00;;;;;;;10.60;100.00;94437.50;5005892;28;20243;-74
2023/04/17 04:40:38;;;;;;;12.77;6.30;;;;;;;10.58;100.00;94432.47;5008517;28;20226;-74
2023/04/17 04:43:05;;;;;;;10.50;6.20;;;;;;;10.57;100.00;94438.75;4990693;28;20269;-76
2023/04/17 04:45:31;;;;;;;9.80;5.90;;;;;;;10.59;100.00;94436.69;5001774;28;20218;-75
2023/04/17 04:47:56;;;;;;;13.30;5.70;;;;;;;10.72;100.00;94433.97;4999518;28;20347;-75
2023/04/17 04:50:22;;;;;;;15.97;6.23;;;;;;;10.82;100.00;94444.78;4996286;28;20262;-75
2023/04/17 04:52:47;;;;;;;11.77;6.50;;;;;;;10.62;100.00;94438.91;4999029;28;20229;-74
2023/04/17 04:55:13;;;;;;;14.63;6.03;;;;;;;10.58;100.00;94440.31;5007853;28;20745;-74
2023/04/17 04:57:39;;;;;;;12.80;6.07;;;;;;;10.64;100.00;94446.53;5017015;28;20238;-75
2023/04/17 05:00:08;;;;;;;10.10;6.23;;;;;;;10.88;100.00;94447.56;5019357;28;20252;-75
2023/04/17 05:02:33;;;;;;;14.43;6.87;;;;;;;10.92;100.00;94435.66;5025310;28;20231;-74
2023/04/17 05:04:59;;;;;;;10.90;6.43;;;;;;;11.01;100.00;94444.88;5010703;28;20222;-75
2023/04/17 05:07:24;;;;;;;17.77;6.60;;;;;;;11.07;100.00;94446.63;5023497;28;20971;-75
2023/04/17 05:09:50;;;;;;;13.57;6.47;;;;;;;11.08;99.29;94440.38;4991791;28;20296;-75
2023/04/17 05:12:15;;;;;;;13.50;6.10;;;;;;;11.00;98.89;94443.25;4971575;28;20257;-75
2023/04/17 05:14:41;;;;;;;14.33;5.90;;;;;;;10.96;99.70;94445.53;5007551;28;20299;-75
2023/04/17 05:17:07;;;;;;;13.03;6.20;;;;;;;11.07;99.15;94446.63;4983952;28;20744;-76
2023/04/17 05:19:32;;;;;;;13.57;5.67;;;;;;;11.03;99.25;94453.31;4993902;28;20230;-76
2023/04/17 05:21:58;;;;;;;14.30;6.13;;;;;;;11.28;98.48;94457.53;4989651;28;20732;-75
2023/04/17 05:24:23;;;;;;;14.27;6.50;;;;;;;11.29;98.40;94453.91;4995848;28;20242;-75
2023/04/17 05:26:55;;;;;;;12.40;6.20;;;;;;;11.49;97.00;94448.47;5000212;28;20384;-76
2023/04/17 05:29:23;;;;;;;14.60;5.97;;;;;;;11.60;96.72;94453.00;4997303;28;20238;-74
2023/04/17 05:31:49;;;;;;;11.83;5.67;;;;;;;11.60;96.61;94450.38;5014421;28;20226;-74
2023/04/17 05:34:14;;;;;;;14.77;5.67;;;;;;;11.62;95.77;94453.59;4999096;28;20280;-75
2023/04/17 05:36:40;;;;;;;14.00;6.13;;;;;;;11.40;96.05;94449.75;4981998;28;20230;-74
2023/04/17 05:39:05;;;;;;;14.43;5.53;;;;;;;11.41;96.50;94461.84;5011105;28;20309;-75
2023/04/17 05:41:34;;;;;;;15.87;6.20;;;;;;;11.41;96.74;94446.94;5011186;28;20730;-75
2023/04/17 05:44:02;;;;;;;14.30;6.20;;;;;;;11.51;96.72;94452.47;5005848;28;20318;-75
2023/04/17 05:46:27;;;;;;;13.07;5.70;;;;;;;11.39;95.98;94461.28;5023618;28;20224;-76
2023/04/17 05:48:53;;;;;;;12.23;5.40;;;;;;;11.32;95.80;94455.28;5009802;28;20460;-73
2023/04/17 05:51:18;;;;;;;14.33;5.73;;;;;;;11.39;95.38;94445.56;5012742;28;20259;-75
2023/04/17 05:53:44;;;;;;;9.83;5.30;;;;;;;11.44;95.31;94461.41;5010505;28;20245;-75
2023/04/17 05:56:10;;;;;;;10.73;5.30;;;;;;;11.57;94.93;94455.25;5013839;28;20246;-75
2023/04/17 05:58:36;;;;;;;16.33;5.60;;;;;;;11.61;93.86;94465.06;5001397;28;20635;-75
2023/04/17 06:01:04;;;;;;;14.07;5.00;;;;;;;11.57;94.92;94463.91;4997953;28;20237;-75
2023/04/17 06:03:31;;;;;;;15.23;5.13;;;;;;;11.66;94.17;94462.59;4995208;28;20289;-75
2023/04/17 06:05:57;;;;;;;14.97;5.47;;;;;;;11.66;93.50;94464.41;5000102;28;20234;-75
2023/04/17 06:08:23;;;;;;;11.63;5.27;;;;;;;11.63;93.38;94468.28;5022627;28;20233;-75
2023/04/17 06:10:49;;;;;;;14.47;5.60;;;;;;;11.90;93.54;94477.50;4997701;28;20226;-75
2023/04/17 06:13:15;;;;;;;14.37;5.43;;;;;;;12.04;92.44;94476.34;5022014;28;20288;-74
2023/04/17 06:15:41;;;;;;;14.10;5.77;;;;;;;12.02;92.26;94477.59;4995245;28;20230;-76
2023/04/17 06:18:06;;;;;;;17.30;6.43;;;;;;;11.86;93.00;94478.97;5011768;28;21162;-76
2023/04/17 06:20:31;;;;;;;12.90;5.40;;;;;;;12.15;91.99;94480.88;4998129;28;20235;-75
2023/04/17 06:22:57;;;;;;;15.23;5.80;;;;;;;12.28;91.75;94479.09;4988800;28;20230;-74
2023/04/17 06:25:23;;;;;;;15.43;5.67;;;;;;;12.29;90.95;94478.88;4998284;28;20230;-76
2023/04/17 06:27:48;;;;;;;10.63;5.30;;;;;;;11.96;91.41;94484.53;5002331;28;20231;-76
2023/04/17 06:30:14;;;;;;;15.77;5.77;;;;;;;11.87;92.24;94485.03;5002278;28;20314;-76
2023/04/17 06:32:42;;;;;;;15.37;6.13;;;;;;;11.94;92.05;94491.00;5013150;28;20250;-76
2023/04/17 06:35:09;;;;;;;16.03;6.17;;;;;;;11.90;92.67;94495.06;4999891;28;20241;-75
2023/04/17 06:37:35;;;;;;;16.07;6.10;;;;;;;11.94;92.49;94496.25;5001045;28;20238;-75
2023/04/17 06:40:00;;;;;;;13.37;6.13;;;;;;;12.03;91.82;94494.94;5001131;28;20771;-76
2023/04/17 06:42:26;;;;;;;15.43;6.27;;;;;;;12.05;92.48;94498.13;5001312;28;20691;-76
2023/04/17 06:44:53;;;;;;;15.07;6.27;;;;;;;12.25;92.35;94495.31;4995167;28;20230;-75
2023/04/17 06:47:19;;;;;;;15.60;6.27;;;;;;;12.41;91.02;94492.88;4999066;28;20779;-76
2023/04/17 06:49:44;;;;;;;13.33;6.37;;;;;;;12.42;90.82;94498.94;4978659;28;20746;-76
2023/04/17 06:52:10;;;;;;;15.30;6.43;;;;;;;12.27;91.21;94496.69;5010819;28;20241;-76
2023/04/17 06:54:35;;;;;;;12.90;6.60;;;;;;;12.33;91.48;94492.34;5002300;28;20288;-76
2023/04/17 06:57:04;;;;;;;16.27;6.40;;;;;;;12.36;91.50;94492.72;5003152;28;20339;-75
2023/04/17 06:59:30;;;;;;;14.90;6.60;;;;;;;12.36;91.50;94492.72;4996182;28;20745;-75
2023/04/17 07:01:56;;;;;;;16.70;7.03;;;;;;;12.37;90.77;94502.19;4995567;28;20238;-76
2023/04/17 07:04:22;;;;;;;19.03;7.23;;;;;;;12.63;89.52;94487.94;4999728;28;20676;-76
2023/04/17 07:06:47;;;;;;;15.57;6.70;;;;;;;12.59;89.46;94487.59;4998947;28;20682;-75
2023/04/17 07:09:13;;;;;;;14.73;7.03;;;;;;;12.67;89.51;94491.72;4998780;28;20326;-74
2023/04/17 07:11:38;;;;;;;14.73;7.30;;;;;;;13.02;89.04;94494.44;4986432;28;20327;-76
2023/04/17 07:14:05;;;;;;;16.93;7.00;;;;;;;13.34;88.39;94490.56;5019526;28;21250;-75
2023/04/17 07:16:30;;;;;;;14.13;6.70;;;;;;;13.52;86.84;94495.72;5019095;28;20234;-76
2023/04/17 07:18:56;;;;;;;17.13;7.13;;;;;;;13.49;86.14;94498.81;5009772;28;20325;-76
2023/04/17 07:21:21;;;;;;;16.37;6.80;;;;;;;13.38;85.19;94499.59;4998993;28;20699;-76
2023/04/17 07:23:47;;;;;;;17.40;7.13;;;;;;;13.44;85.27;94501.31;4986408;28;20246;-76
2023/04/17 07:26:12;;;;;;;14.00;6.87;;;;;;;13.78;83.80;94494.50;4995595;28;20230;-75
2023/04/17 07:28:38;;;;;;;17.10;7.27;;;;;;;14.08;83.43;94508.28;5001482;28;20276;-75
2023/04/17 07:31:07;;;;;;;18.50;6.67;;;;;;;13.74;83.13;94503.84;4993452;28;20317;-76
2023/04/17 07:33:35;;;;;;;13.70;7.27;;;;;;;13.49;83.59;94502.22;4997212;28;20889;-75
2023/04/17 07:36:01;;;;;;;13.70;7.10;;;;;;;13.53;83.93;94505.22;4983445;28;20230;-76
2023/04/17 07:38:26;;;;;;;13.27;7.00;;;;;;;13.72;82.25;94506.72;4998285;28;20237;-76
2023/04/17 07:40:52;;;;;;;16.03;7.00;;;;;;;13.79;82.31;94502.13;5006079;28;20238;-76
2023/04/17 07:43:17;;;;;;;18.70;7.30;;;;;;;13.63;83.64;94502.03;4994164;28;20304;-75
2023/04/17 07:45:43;;;;;;;16.97;6.97;;;;;;;13.78;81.80;94497.13;5011767;28;20329;-75
2023/04/17 07:48:08;;;;;;;14.10;6.70;;;;;;;13.72;82.54;94503.28;5021422;28;20617;-75
2023/04/17 07:50:34;;;;;;;15.50;7.10;;;;;;;14.03;82.65;94500.28;5007940;28;20229;-75
2023/04/17 07:53:00;;;;;;;19.67;7.13;;;;;;;14.00;82.55;94500.75;5019157;28;20230;-76
2023/04/17 07:55:25;;;;;;;18.47;7.10;;;;;;;14.05;82.29;94506.94;4983956;28;20254;-76
2023/04/17 07:57:51;;;;;;;16.87;6.80;;;;;;;13.95;82.12;94506.69;5001425;28;20239;-76
2023/04/17 08:00:17;;;;;;;19.27;7.80;;;;;;;13.80;84.02;94513.47;5006929;28;20238;-76
2023/04/17 08:02:43;;;;;;;17.07;7.00;;;;;;;13.61;83.21;94507.53;5007945;28;20334;-76
2023/04/17 08:05:09;;;;;;;17.80;7.97;;;;;;;13.70;83.56;94514.03;5010418;28;20593;-74
2023/04/17 08:07:35;;;;;;;14.53;6.77;;;;;;;13.81;82.71;94512.41;4998487;28;20223;-75
2023/04/17 08:10:01;;;;;;;18.20;7.13;;;;;;;13.60;83.41;94510.34;5008837;28;20230;-76
2023/04/17 08:12:27;;;;;;;17.63;7.40;;;;;;;13.60;83.92;94518.25;5022165;28;20242;-76
2023/04/17 08:14:52;;;;;;;16.37;7.10;;;;;;;13.96;83.58;94508.31;4998034;28;20245;-76
2023/04/17 08:17:21;;;;;;;12.37;6.47;;;;;;;13.89;82.58;94514.72;4997662;28;20230;-75
2023/04/17 08:19:52;;;;;;;13.90;6.67;;;;;;;13.93;84.28;94507.97;4998465;28;20292;-76
2023/04/17 08:22:20;;;;;;;15.37;7.03;;;;;;;14.17;85.23;94512.97;4997075;28;20334;-76
2023/04/17 08:24:45;;;;;;;14.80;6.37;;;;;;;14.13;83.84;94508.41;5010698;28;20329;-76
2023/04/17 08:27:12;;;;;;;14.37;6.97;;;;;;;14.13;85.05;94511.84;4998224;28;20241;-75
2023/04/17 08:29:38;;;;;;;13.67;6.77;;;;;;;13.95;86.19;94508.53;5003177;28;20253;-76
2023/04/17 08:32:04;;;;;;;14.43;6.93;;;;;;;13.75;89.02;94516.78;4995054;28;20234;-74
2023/04/17 08:34:30;;;;;;;12.17;7.17;;;;;;;13.83;90.77;94511.16;4996137;28;20254;-73
2023/04/17 08:36:56;;;;;;;15.60;7.33;;;;;;;13.79;92.73;94512.66;4987480;28;20231;-76
2023/04/17 08:39:22;;;;;;;17.20;6.90;;;;;;;13.80;90.67;94511.66;5010264;28;20618;-75
2023/04/17 08:41:49;;;;;;;15.77;7.10;;;;;;;14.10;91.70;94512.31;4983395;28;20726;-75
2023/04/17 08:44:22;;;;;;;19.10;7.60;;;;;;;14.19;94.00;94508.28;5003291;28;20254;-75
2023/04/17 08:46:48;;;;;;;13.30;6.60;;;;;;;14.27;89.71;94508.94;5012640;28;20222;-75
2023/04/17 08:49:14;;;;;;;15.17;7.27;;;;;;;14.44;90.46;94507.22;4977171;28;20312;-75
2023/04/17 08:51:40;;;;;;;16.00;7.27;;;;;;;14.53;88.57;94509.25;5009003;28;20241;-74
2023/04/17 08:54:06;;;;;;;14.83;6.10;;;;;;;14.19;85.49;94507.47;5018665;28;20242;-75
2023/04/17 08:56:31;;;;;;;13.90;6.73;;;;;;;14.14;87.08;94508.16;5006540;28;20281;-74
2023/04/17 08:58:57;;;;;;;14.83;6.67;;;;;;;14.42;89.75;94506.66;4976752;28;20343;-75
2023/04/17 09:01:22;;;;;;;14.87;6.73;;;;;;;14.57;89.69;94514.84;4981086;28;20728;-75
2023/04/17 09:03:48;;;;;;;16.47;6.87;;;;;;;14.31;86.73;94510.09;4981764;28;20611;-75
2023/04/17 09:06:13;;;;;;;15.73;6.77;;;;;;;14.36;87.25;94507.59;4978538;28;20246;-75
2023/04/17 09:08:56;;;;;;;12.53;6.23;;;;;;;14.42;85.87;94511.94;4972052;28;20678;-75
2023/04/17 09:11:22;;;;;;;12.43;6.63;;;;;;;14.64;86.58;94510.28;4979286;28;20324;-75
2023/04/17 09:13:47;;;;;;;13.83;6.30;;;;;;;14.62;85.50;94507.06;4981493;28;20708;-75
2023/04/17 09:16:18;;;;;;;15.33;6.70;;;;;;;14.79;86.03;94513.19;4991383;28;20855;-75
2023/04/17 09:18:44;;;;;;;17.27;7.17;;;;;;;14.69;88.47;94500.63;4976472;28;20254;-75
2023/04/17 09:21:10;;;;;;;14.43;7.40;;;;;;;14.68;88.20;94501.66;4973445;28;20243;-75
2023/04/17 09:23:50;;;;;;;14.97;7.23;;;;;;;14.64;87.03;94505.78;4981346;28;20232;-76
2023/04/17 09:26:19;;;;;;;13.10;7.17;;;;;;;14.73;87.91;94504.41;4977576;28;20242;-75
2023/04/17 09:29:10;;;;;;;16.43;7.10;;;;;;;14.58;88.41;94496.19;4980646;28;20238;-75
2023/04/17 09:31:37;;;;;;;15.93;6.93;;;;;;;14.53;86.50;94496.09;4988020;28;20247;-75
2023/04/17 09:34:04;;;;;;;14.63;7.20;;;;;;;14.47;87.27;94507.56;4999108;28;20816;-75
2023/04/17 09:36:31;;;;;;;18.57;7.33;;;;;;;14.27;87.88;94512.38;4990472;28;20302;-74
2023/04/17 09:39:02;;;;;;;17.50;8.20;;;;;;;14.02;93.51;94515.28;4993474;28;20234;-73
2023/04/17 09:41:29;;;;;;;19.93;8.10;;;;;;;13.88;93.58;94521.00;4986489;28;20249;-73
2023/04/17 09:43:55;;;;;;;15.40;8.07;;;;;;;13.77;93.97;94530.50;4982845;28;20227;-73
2023/04/17 09:46:44;;;;;;;17.83;9.07;;;;;;;13.85;98.86;94521.47;4974613;28;20619;-74
2023/04/17 09:49:17;;;;;;;15.93;8.80;;;;;;;13.81;98.72;94509.78;4967725;28;20231;-73
2023/04/17 09:51:43;;;;;;;16.30;8.50;;;;;;;14.03;96.52;94510.81;4988967;28;20243;-73
2023/04/17 09:54:10;;;;;;;15.37;8.70;;;;;;;14.01;96.64;94508.44;4959886;28;20817;-74
2023/04/17 09:56:36;;;;;;;19.13;8.70;;;;;;;14.12;98.32;94509.44;5009748;28;20246;-74
2023/04/17 09:59:03;;;;;;;14.70;8.57;;;;;;;14.33;95.71;94503.56;5002132;28;20235;-73
2023/04/17 10:01:31;;;;;;;14.80;8.00;;;;;;;14.43;93.39;94509.06;5009043;28;20321;-74
2023/04/17 10:03:57;;;;;;;17.70;8.47;;;;;;;14.46;94.04;94508.59;4985715;28;20728;-74
2023/04/17 10:06:25;;;;;;;15.03;7.40;;;;;;;14.44;91.24;94505.41;5019519;28;20237;-74
2023/04/17 10:08:51;;;;;;;13.87;6.73;;;;;;;14.25;89.36;94493.41;4996889;28;20231;-75
2023/04/17 10:11:16;;;;;;;11.57;6.60;;;;;;;14.24;90.60;94499.69;4996573;28;20604;-75
2023/04/17 10:13:41;;;;;;;13.83;6.67;;;;;;;14.46;89.66;94487.53;4995916;28;20238;-75
2023/04/17 10:16:07;;;;;;;10.43;5.97;;;;;;;14.70;85.39;94499.59;5004670;28;20513;-75
2023/04/17 10:18:32;;;;;;;11.10;6.40;;;;;;;15.05;89.33;94491.53;4995339;28;20257;-74
2023/04/17 10:21:00;;;;;;;13.27;6.40;;;;;;;15.47;86.57;94489.38;5012453;28;20227;-74
2023/04/17 10:23:35;;;;;;;12.30;6.27;;;;;;;15.47;82.92;94486.72;5007688;28;20667;-75
2023/04/17 10:26:28;;;;;;;12.47;6.23;;;;;;;15.46;84.32;94488.56;5001579;28;20245;-75
2023/04/17 10:28:54;;;;;;;10.93;6.47;;;;;;;15.47;83.55;94489.38;5012957;28;20794;-75
2023/04/17 10:31:21;;;;;;;13.73;6.10;;;;;;;15.36;79.59;94488.38;4995308;28;20308;-73
2023/04/17 10:33:51;;;;;;;11.60;5.77;;;;;;;15.50;78.89;94491.50;5020314;28;20798;-75
2023/04/17 10:36:38;;;;;;;13.30;6.10;;;;;;;15.35;80.71;94480.69;4989384;28;20242;-74
2023/04/17 10:39:14;;;;;;;13.00;6.53;;;;;;;15.57;82.05;94481.59;5012966;28;20324;-74
2023/04/17 10:42:01;;;;;;;12.97;6.27;;;;;;;15.75;76.86;94486.63;4996965;28;20272;-74
2023/04/17 10:44:27;;;;;;;10.83;6.40;;;;;;;15.77;74.83;94473.19;5014330;28;20246;-75
2023/04/17 10:46:52;;;;;;;12.27;6.33;;;;;;;15.92;73.23;94482.13;4997531;28;20234;-75
2023/04/17 10:49:20;;;;;;;12.77;7.47;;;;;;;16.07;76.98;94481.53;4998216;28;20234;-75
2023/04/17 10:51:46;;;;;;;12.73;7.87;;;;;;;16.10;73.01;94484.47;5011597;28;20231;-73
2023/04/17 10:54:14;;;;;;;14.70;7.53;;;;;;;15.85;74.17;94481.50;5002834;28;20318;-74
2023/04/17 10:56:47;;;;;;;18.10;7.53;;;;;;;15.43;73.93;94480.28;5020025;28;20242;-75
2023/04/17 10:59:13;;;;;;;12.50;7.50;;;;;;;15.37;72.91;94484.69;5019380;28;20230;-75
2023/04/17 11:01:56;;;;;;;16.00;7.97;;;;;;;15.45;75.49;94476.41;5010785;28;20237;-75
2023/04/17 11:04:29;;;;;;;11.53;7.50;;;;;;;15.64;73.39;94470.91;5008454;28;20321;-74
2023/04/17 11:06:55;;;;;;;16.83;7.47;;;;;;;15.30;73.23;94470.06;4997686;28;20636;-74
2023/04/17 11:09:21;;;;;;;15.40;7.90;;;;;;;15.55;72.49;94477.63;5012539;28;20242;-74
2023/04/17 11:11:47;;;;;;;13.17;7.03;;;;;;;15.18;70.67;94474.59;5005406;28;20322;-74
2023/04/17 11:14:16;;;;;;;10.03;7.00;;;;;;;15.18;72.04;94471.97;5001303;28;20257;-75
2023/04/17 11:16:43;;;;;;;13.67;7.23;;;;;;;15.11;72.31;94480.03;5014274;28;20234;-74
2023/04/17 11:19:09;;;;;;;12.30;7.30;;;;;;;14.80;73.28;94470.81;5015024;28;20266;-75